Time;durP1;ratioP1;P1;durP2;ratioP2;P2;SDS_P1;SDS_P2;PMS_P1;PMS_P2;Temp;Humidity;BMP_temperature;BMP_pressure;BME280_temperature;BME280_humidity;BME280_pressure;Samples;Min_cycle;Max_cycle;Signal;HPM_P1;HPM_P2
2021/12/06 00:01:09;;;;;;;4.80;2.73;;;;;;;;;;5054414;28;20390;-69
2021/12/06 00:03:38;;;;;;;3.70;3.13;;;;;;;;;;5054047;28;20457;-69
2021/12/06 00:06:04;;;;;;;4.10;3.00;;;;;;;;;;5054196;28;20402;-69
2021/12/06 00:08:30;;;;;;;5.33;3.00;;;;;;;;;;5054137;28;20459;-69
2021/12/06 00:10:56;;;;;;;5.20;3.57;;;;;;;;;;5054181;28;20507;-69
2021/12/06 00:13:23;;;;;;;3.53;3.23;;;;;;;;;;5054122;28;20487;-69
2021/12/06 00:15:51;;;;;;;3.67;3.00;;;;;;;;;;5054326;28;20880;-69
2021/12/06 00:18:18;;;;;;;4.50;3.03;;;;;;;;;;5054504;28;20398;-68
2021/12/06 00:20:45;;;;;;;5.40;3.20;;;;;;;;;;5054596;28;20398;-68
2021/12/06 00:23:11;;;;;;;3.20;2.43;;;;;;;;;;5054224;28;20520;-68
2021/12/06 00:25:37;;;;;;;4.67;2.90;;;;;;;;;;5052689;28;20475;-68
2021/12/06 00:28:03;;;;;;;8.30;4.20;;;;;;;;;;5053960;28;20418;-68
2021/12/06 00:30:30;;;;;;;4.77;2.80;;;;;;;;;;5053730;28;20475;-68
2021/12/06 00:32:56;;;;;;;5.37;3.60;;;;;;;;;;5052689;28;20421;-68
2021/12/06 00:35:24;;;;;;;4.17;2.60;;;;;;;;;;5053849;28;20390;-68
2021/12/06 00:38:00;;;;;;;4.00;2.80;;;;;;;;;;5053715;28;20386;-69
2021/12/06 00:40:40;;;;;;;4.90;3.17;;;;;;;;;;5053580;28;20751;-68
2021/12/06 00:43:06;;;;;;;7.07;3.97;;;;;;;;;;5053218;28;20483;-69
2021/12/06 00:45:33;;;;;;;5.33;3.47;;;;;;;;;;5053620;28;20900;-69
2021/12/06 00:47:59;;;;;;;7.83;4.60;;;;;;;;;;5053476;28;20848;-69
2021/12/06 00:50:26;;;;;;;4.47;3.80;;;;;;;;;;5053479;28;20541;-69
2021/12/06 00:52:52;;;;;;;6.40;4.20;;;;;;;;;;5053239;28;20434;-69
2021/12/06 00:55:19;;;;;;;6.40;4.13;;;;;;;;;;5053355;28;20405;-69
2021/12/06 00:57:46;;;;;;;5.40;3.60;;;;;;;;;;5053448;28;20409;-69
2021/12/06 01:00:17;;;;;;;4.90;3.80;;;;;;;;;;5053679;28;20911;-69
2021/12/06 01:02:43;;;;;;;7.73;4.10;;;;;;;;;;5053659;28;20418;-68
2021/12/06 01:05:09;;;;;;;6.47;4.73;;;;;;;;;;5055154;28;20501;-69
2021/12/06 01:07:35;;;;;;;5.90;4.10;;;;;;;;;;5054612;28;20491;-69
2021/12/06 01:10:02;;;;;;;8.17;4.37;;;;;;;;;;5052942;28;20449;-68
2021/12/06 01:12:28;;;;;;;7.23;4.20;;;;;;;;;;5053000;28;20462;-68
2021/12/06 01:14:54;;;;;;;5.90;3.43;;;;;;;;;;5052762;28;20588;-68
2021/12/06 01:17:20;;;;;;;5.50;4.07;;;;;;;;;;5052912;28;20923;-68
2021/12/06 01:19:46;;;;;;;7.10;3.47;;;;;;;;;;5053078;28;20586;-68
2021/12/06 01:24:45;;;;;;;3.83;3.40;;;;;;;;;;5053098;28;20410;-68
2021/12/06 01:40:05;;;;;;;4.00;3.00;;;;;;;;;;5053028;28;20428;-69
2021/12/06 01:42:31;;;;;;;6.70;3.23;;;;;;;;;;5051121;28;20442;-68
2021/12/06 01:44:58;;;;;;;5.60;4.00;;;;;;;;;;5054727;28;20387;-68
2021/12/06 01:47:29;;;;;;;5.07;3.60;;;;;;;;;;5056995;28;20429;-68
2021/12/06 01:49:57;;;;;;;5.53;4.93;;;;;;;;;;5056905;28;20528;-68
2021/12/06 01:52:25;;;;;;;12.10;7.00;;;;;;;;;;5056718;28;20513;-68
2021/12/06 01:54:52;;;;;;;16.43;8.57;;;;;;;;;;5056865;28;20425;-69
2021/12/06 01:57:18;;;;;;;13.87;11.40;;;;;;;;;;5056900;28;20409;-69
2021/12/06 01:59:44;;;;;;;17.93;11.93;;;;;;;;;;5056709;28;20402;-69
2021/12/06 02:02:10;;;;;;;20.87;14.30;;;;;;;;;;5056952;28;20410;-68
2021/12/06 02:04:37;;;;;;;22.63;14.03;;;;;;;;;;5055279;28;20560;-69
2021/12/06 02:07:06;;;;;;;23.77;14.60;;;;;;;;;;5056701;28;20397;-68
2021/12/06 02:09:32;;;;;;;20.20;14.10;;;;;;;;;;5056533;28;20437;-68
2021/12/06 02:12:00;;;;;;;20.07;14.10;;;;;;;;;;5056526;28;20400;-68
2021/12/06 02:17:17;;;;;;;26.97;16.20;;;;;;;;;;5048105;28;20839;-68
2021/12/06 02:19:47;;;;;;;22.00;13.87;;;;;;;;;;5040028;28;20915;-68
2021/12/06 02:22:16;;;;;;;23.13;14.40;;;;;;;;;;5035968;28;20396;-68
2021/12/06 02:24:42;;;;;;;18.93;13.30;;;;;;;;;;5036353;28;20402;-68
2021/12/06 02:27:10;;;;;;;21.93;15.00;;;;;;;;;;5035852;28;20476;-68
2021/12/06 02:29:36;;;;;;;23.43;14.37;;;;;;;;;;5036033;28;20442;-68
2021/12/06 02:32:09;;;;;;;22.77;14.80;;;;;;;;;;5036109;28;20453;-69
2021/12/06 02:34:35;;;;;;;19.20;12.60;;;;;;;;;;5036372;28;20446;-68
2021/12/06 02:37:01;;;;;;;21.27;14.80;;;;;;;;;;5036064;28;20402;-68
2021/12/06 02:39:29;;;;;;;20.33;13.30;;;;;;;;;;5036154;28;20494;-68
2021/12/06 02:41:56;;;;;;;17.30;13.40;;;;;;;;;;5036545;28;20410;-68
2021/12/06 02:44:22;;;;;;;19.03;12.63;;;;;;;;;;5035250;28;20415;-68
2021/12/06 02:46:49;;;;;;;22.20;13.40;;;;;;;;;;5035795;28;20452;-68
2021/12/06 02:49:15;;;;;;;22.97;13.93;;;;;;;;;;5036016;28;20449;-68
2021/12/06 02:51:41;;;;;;;17.37;11.73;;;;;;;;;;5036303;28;20809;-68
2021/12/06 02:54:09;;;;;;;15.93;12.27;;;;;;;;;;5036464;28;20422;-68
2021/12/06 02:56:51;;;;;;;19.40;12.00;;;;;;;;;;5034858;28;20398;-68
2021/12/06 02:59:17;;;;;;;23.17;11.40;;;;;;;;;;5035258;28;20460;-68
2021/12/06 03:01:48;;;;;;;15.40;12.10;;;;;;;;;;5035485;28;20406;-68
2021/12/06 03:04:15;;;;;;;20.17;12.20;;;;;;;;;;5035072;28;20422;-69
2021/12/06 03:06:41;;;;;;;16.30;11.50;;;;;;;;;;5035659;28;20407;-68
2021/12/06 03:09:12;;;;;;;15.70;10.53;;;;;;;;;;5035175;28;20441;-69
2021/12/06 03:11:41;;;;;;;14.87;11.03;;;;;;;;;;5035086;28;20847;-68
2021/12/06 03:14:08;;;;;;;14.60;11.70;;;;;;;;;;5035143;28;20986;-69
2021/12/06 03:16:35;;;;;;;12.93;10.80;;;;;;;;;;5035385;28;20403;-68
2021/12/06 03:19:01;;;;;;;14.97;10.90;;;;;;;;;;5034906;28;20474;-68
2021/12/06 03:21:27;;;;;;;13.23;10.37;;;;;;;;;;5034929;28;20449;-68
2021/12/06 03:23:54;;;;;;;16.60;10.63;;;;;;;;;;5034879;28;20418;-68
2021/12/06 03:26:21;;;;;;;15.00;12.97;;;;;;;;;;5034848;28;20816;-68
2021/12/06 03:28:47;;;;;;;13.73;11.10;;;;;;;;;;5034754;28;20403;-67
2021/12/06 03:31:14;;;;;;;16.20;11.80;;;;;;;;;;5035045;28;20418;-69
2021/12/06 03:33:41;;;;;;;14.77;12.10;;;;;;;;;;5034652;28;20553;-69
2021/12/06 03:36:09;;;;;;;16.30;11.80;;;;;;;;;;5034700;28;20394;-69
2021/12/06 03:38:35;;;;;;;18.07;12.60;;;;;;;;;;5034883;28;20788;-69
2021/12/06 03:41:01;;;;;;;19.20;12.10;;;;;;;;;;5034475;28;20477;-69
2021/12/06 03:43:28;;;;;;;16.03;11.43;;;;;;;;;;5034802;28;20454;-69
2021/12/06 03:45:54;;;;;;;14.93;11.07;;;;;;;;;;5034424;28;20407;-69
2021/12/06 03:48:20;;;;;;;15.67;11.90;;;;;;;;;;5034770;28;20823;-69
2021/12/06 03:50:46;;;;;;;18.93;13.03;;;;;;;;;;5045841;28;20997;-69
2021/12/06 03:53:12;;;;;;;18.43;13.00;;;;;;;;;;5054295;28;20442;-69
2021/12/06 03:55:38;;;;;;;18.03;13.03;;;;;;;;;;5054180;28;20487;-69
2021/12/06 03:58:04;;;;;;;20.10;14.33;;;;;;;;;;5054419;28;20480;-69
2021/12/06 04:00:30;;;;;;;22.93;15.27;;;;;;;;;;5054177;28;20397;-69
2021/12/06 04:02:56;;;;;;;18.80;13.87;;;;;;;;;;5054063;28;20436;-69
2021/12/06 04:05:23;;;;;;;20.33;14.60;;;;;;;;;;5054362;28;20402;-69
2021/12/06 04:07:49;;;;;;;20.70;15.50;;;;;;;;;;5054136;28;20398;-69
2021/12/06 04:10:15;;;;;;;18.83;13.70;;;;;;;;;;5054196;28;20528;-69
2021/12/06 04:12:41;;;;;;;19.60;15.30;;;;;;;;;;5054591;28;20858;-69
2021/12/06 04:15:08;;;;;;;19.87;13.53;;;;;;;;;;5055505;28;20394;-69
2021/12/06 04:17:35;;;;;;;21.70;13.67;;;;;;;;;;5055280;28;20448;-69
2021/12/06 04:20:01;;;;;;;21.20;13.33;;;;;;;;;;5054371;28;20412;-69
2021/12/06 04:22:27;;;;;;;22.90;15.73;;;;;;;;;;5053812;28;20495;-68
2021/12/06 04:24:53;;;;;;;26.47;15.50;;;;;;;;;;5053727;28;20394;-68
2021/12/06 04:27:21;;;;;;;18.43;13.80;;;;;;;;;;5053795;28;20402;-68
2021/12/06 04:29:48;;;;;;;20.83;14.20;;;;;;;;;;5053755;28;20457;-67
2021/12/06 04:32:16;;;;;;;21.40;15.00;;;;;;;;;;5053487;28;20437;-68
2021/12/06 04:34:42;;;;;;;20.23;14.43;;;;;;;;;;5053588;28;20457;-69
2021/12/06 04:37:09;;;;;;;20.80;15.90;;;;;;;;;;5050774;28;21019;-68
2021/12/06 04:39:35;;;;;;;20.37;15.37;;;;;;;;;;5053368;28;20828;-68
2021/12/06 04:42:01;;;;;;;24.83;16.67;;;;;;;;;;5054034;28;20485;-69
2021/12/06 04:44:28;;;;;;;25.73;15.80;;;;;;;;;;5053725;28;20402;-68
2021/12/06 04:46:54;;;;;;;25.10;16.53;;;;;;;;;;5053624;28;20402;-68
2021/12/06 04:49:21;;;;;;;22.80;16.20;;;;;;;;;;5053726;28;20441;-69
2021/12/06 04:51:50;;;;;;;25.20;16.93;;;;;;;;;;5053511;28;20397;-70
2021/12/06 04:54:19;;;;;;;27.07;16.97;;;;;;;;;;5054196;28;20831;-70
2021/12/06 04:56:49;;;;;;;31.43;17.00;;;;;;;;;;5054315;28;20402;-70
2021/12/06 04:59:34;;;;;;;31.40;18.77;;;;;;;;;;5054460;28;20732;-69
2021/12/06 05:02:02;;;;;;;32.10;17.80;;;;;;;;;;5053834;28;20924;-69
2021/12/06 05:04:30;;;;;;;30.40;18.53;;;;;;;;;;5053389;28;20908;-69
2021/12/06 05:06:59;;;;;;;25.37;17.17;;;;;;;;;;5053255;28;20760;-68
2021/12/06 05:09:28;;;;;;;27.90;16.63;;;;;;;;;;5052908;28;20448;-68
2021/12/06 05:11:54;;;;;;;31.53;17.80;;;;;;;;;;5053015;28;20496;-68
2021/12/06 05:14:20;;;;;;;24.17;16.03;;;;;;;;;;5053299;28;20439;-69
2021/12/06 05:16:46;;;;;;;30.03;17.17;;;;;;;;;;5053134;28;20417;-69
2021/12/06 05:19:12;;;;;;;28.13;18.07;;;;;;;;;;5052738;28;20417;-69
2021/12/06 05:21:38;;;;;;;30.10;17.70;;;;;;;;;;5053019;28;20432;-68
2021/12/06 05:24:07;;;;;;;25.97;16.97;;;;;;;;;;5053126;28;20797;-68
2021/12/06 05:26:33;;;;;;;25.27;15.97;;;;;;;;;;5052722;28;20414;-68
2021/12/06 05:29:01;;;;;;;25.67;16.53;;;;;;;;;;5052904;28;20409;-68
2021/12/06 05:31:28;;;;;;;29.10;17.50;;;;;;;;;;5053736;28;20479;-68
2021/12/06 05:34:00;;;;;;;25.13;15.90;;;;;;;;;;5053134;28;20448;-68
2021/12/06 05:36:26;;;;;;;25.63;17.03;;;;;;;;;;5053515;28;20828;-68
2021/12/06 05:38:53;;;;;;;36.50;18.37;;;;;;;;;;5052924;28;20398;-68
2021/12/06 05:41:19;;;;;;;27.50;15.57;;;;;;;;;;5052970;28;20484;-68
2021/12/06 05:43:46;;;;;;;32.67;16.93;;;;;;;;;;5054045;28;20480;-69
2021/12/06 05:46:12;;;;;;;23.43;17.43;;;;;;;;;;5054078;28;20410;-68
2021/12/06 05:48:38;;;;;;;27.23;15.90;;;;;;;;;;5054218;28;20406;-68
2021/12/06 05:51:04;;;;;;;28.50;15.50;;;;;;;;;;5054152;28;20437;-69
2021/12/06 05:53:30;;;;;;;26.30;15.23;;;;;;;;;;5053219;28;20435;-69
2021/12/06 05:55:56;;;;;;;30.47;17.57;;;;;;;;;;5053483;28;20398;-69
2021/12/06 05:58:23;;;;;;;23.50;15.83;;;;;;;;;;5053886;28;20463;-69
2021/12/06 06:00:50;;;;;;;23.23;15.23;;;;;;;;;;5054200;28;20398;-69
2021/12/06 06:03:16;;;;;;;23.60;14.70;;;;;;;;;;5053222;28;20429;-70
2021/12/06 06:05:43;;;;;;;27.50;16.90;;;;;;;;;;5053335;28;20441;-69
2021/12/06 06:08:09;;;;;;;29.57;16.50;;;;;;;;;;5052931;28;20402;-70
2021/12/06 06:10:35;;;;;;;29.57;16.17;;;;;;;;;;5052898;28;20473;-69
2021/12/06 06:13:03;;;;;;;26.80;15.80;;;;;;;;;;5053035;28;20847;-69
2021/12/06 06:15:30;;;;;;;29.97;16.00;;;;;;;;;;5053501;28;20489;-69
2021/12/06 06:17:56;;;;;;;26.27;15.70;;;;;;;;;;5053397;28;20809;-69
2021/12/06 06:20:25;;;;;;;22.40;14.57;;;;;;;;;;5051420;28;20405;-68
2021/12/06 06:22:51;;;;;;;24.10;15.90;;;;;;;;;;5053113;28;20440;-69
2021/12/06 06:25:18;;;;;;;27.17;15.80;;;;;;;;;;5053048;28;20406;-69
2021/12/06 06:27:44;;;;;;;31.67;16.47;;;;;;;;;;5053134;28;20485;-69
2021/12/06 06:30:14;;;;;;;27.07;16.60;;;;;;;;;;5052899;28;21027;-69
2021/12/06 06:32:40;;;;;;;28.90;15.93;;;;;;;;;;5056130;28;20454;-69
2021/12/06 06:35:07;;;;;;;26.47;16.27;;;;;;;;;;5056994;28;20408;-70
2021/12/06 06:37:33;;;;;;;29.67;15.00;;;;;;;;;;5056673;28;20779;-70
2021/12/06 06:39:59;;;;;;;32.60;17.20;;;;;;;;;;5056522;28;20456;-70
2021/12/06 06:42:27;;;;;;;35.37;17.90;;;;;;;;;;5056537;28;20855;-69
2021/12/06 06:44:54;;;;;;;26.70;16.47;;;;;;;;;;5056580;28;20737;-70
2021/12/06 06:47:20;;;;;;;26.00;16.80;;;;;;;;;;5057067;28;20766;-69
2021/12/06 06:49:46;;;;;;;32.70;14.77;;;;;;;;;;5056808;28;20442;-70
2021/12/06 06:52:12;;;;;;;38.13;17.13;;;;;;;;;;5056843;28;20421;-70
2021/12/06 06:54:39;;;;;;;35.13;18.70;;;;;;;;;;5056590;28;20455;-70
2021/12/06 06:57:05;;;;;;;25.13;16.10;;;;;;;;;;5056844;28;20398;-70
2021/12/06 06:59:31;;;;;;;27.67;16.73;;;;;;;;;;5056814;28;20508;-70
2021/12/06 07:01:57;;;;;;;30.73;16.33;;;;;;;;;;5055977;28;20409;-70
2021/12/06 07:04:24;;;;;;;26.00;16.80;;;;;;;;;;5056241;28;21020;-70
2021/12/06 07:06:51;;;;;;;30.40;16.47;;;;;;;;;;5056044;28;20465;-70
2021/12/06 07:09:17;;;;;;;26.07;15.70;;;;;;;;;;5056327;28;20846;-70
2021/12/06 07:11:45;;;;;;;29.53;17.63;;;;;;;;;;5054411;28;20517;-70
2021/12/06 07:14:12;;;;;;;27.50;16.53;;;;;;;;;;5054860;28;20525;-70
2021/12/06 07:16:38;;;;;;;32.80;16.20;;;;;;;;;;5055983;28;20768;-66
2021/12/06 07:19:05;;;;;;;30.33;17.70;;;;;;;;;;5056067;28;20505;-71
2021/12/06 07:21:31;;;;;;;27.57;17.20;;;;;;;;;;5056860;28;20425;-65
2021/12/06 07:23:57;;;;;;;30.20;18.07;;;;;;;;;;5056222;28;20467;-65
2021/12/06 07:26:23;;;;;;;30.63;18.23;;;;;;;;;;5057776;28;20553;-66
2021/12/06 07:28:50;;;;;;;30.00;16.67;;;;;;;;;;5057407;28;20426;-67
2021/12/06 07:31:17;;;;;;;35.97;19.40;;;;;;;;;;5056261;28;20824;-67
2021/12/06 07:33:45;;;;;;;29.57;17.37;;;;;;;;;;5051270;28;20525;-69
2021/12/06 07:36:11;;;;;;;24.97;16.73;;;;;;;;;;5054839;28;20398;-69
2021/12/06 07:38:38;;;;;;;28.80;18.43;;;;;;;;;;5055547;28;20798;-69
2021/12/06 07:41:07;;;;;;;29.40;16.23;;;;;;;;;;5055146;28;20447;-72
2021/12/06 07:43:34;;;;;;;26.47;15.40;;;;;;;;;;5053988;28;20479;-70
2021/12/06 07:46:01;;;;;;;24.93;15.70;;;;;;;;;;5054274;28;20401;-69
2021/12/06 07:48:27;;;;;;;27.00;16.10;;;;;;;;;;5053973;28;20454;-70
2021/12/06 07:50:53;;;;;;;24.97;17.23;;;;;;;;;;5054823;28;20445;-68
2021/12/06 07:53:19;;;;;;;27.83;15.37;;;;;;;;;;5054281;28;20481;-66
2021/12/06 07:55:45;;;;;;;22.23;16.13;;;;;;;;;;5055087;28;20409;-68
2021/12/06 07:58:11;;;;;;;26.73;15.73;;;;;;;;;;5055180;28;20802;-70
2021/12/06 08:00:41;;;;;;;25.10;17.00;;;;;;;;;;5051223;28;20822;-69
2021/12/06 08:03:08;;;;;;;30.10;17.80;;;;;;;;;;5043892;28;20503;-70
2021/12/06 08:05:35;;;;;;;22.67;15.87;;;;;;;;;;5045200;28;20425;-69
2021/12/06 08:08:06;;;;;;;26.17;16.23;;;;;;;;;;5056652;28;20440;-70
2021/12/06 08:10:34;;;;;;;26.63;16.97;;;;;;;;;;5053061;28;20448;-69
2021/12/06 08:13:00;;;;;;;29.90;16.20;;;;;;;;;;5047943;28;20504;-72
2021/12/06 08:15:26;;;;;;;26.50;16.87;;;;;;;;;;5059221;28;20414;-70
2021/12/06 08:17:52;;;;;;;30.17;18.50;;;;;;;;;;5054871;28;20446;-68
2021/12/06 08:20:19;;;;;;;28.73;16.33;;;;;;;;;;5046606;28;20932;-68
2021/12/06 08:22:45;;;;;;;25.67;16.67;;;;;;;;;;5047936;28;20787;-70
2021/12/06 08:25:13;;;;;;;23.47;15.73;;;;;;;;;;5049401;28;20422;-68
2021/12/06 08:27:40;;;;;;;28.40;17.53;;;;;;;;;;5047159;28;20425;-70
2021/12/06 08:30:06;;;;;;;27.80;17.23;;;;;;;;;;5040421;28;20454;-70
2021/12/06 08:32:32;;;;;;;26.77;16.70;;;;;;;;;;5046744;28;20449;-68
2021/12/06 08:34:58;;;;;;;26.40;17.30;;;;;;;;;;5049582;28;20755;-67
2021/12/06 08:37:26;;;;;;;25.70;16.90;;;;;;;;;;5048412;28;20417;-67
2021/12/06 08:39:52;;;;;;;28.23;16.40;;;;;;;;;;5042151;28;20472;-66
2021/12/06 08:42:19;;;;;;;25.57;15.67;;;;;;;;;;5039397;28;20488;-68
2021/12/06 08:44:45;;;;;;;22.70;16.97;;;;;;;;;;5051953;28;20904;-67
2021/12/06 08:47:11;;;;;;;24.83;15.17;;;;;;;;;;5051506;28;20446;-68
2021/12/06 08:49:38;;;;;;;25.53;17.93;;;;;;;;;;5052338;28;21339;-67
2021/12/06 08:52:04;;;;;;;29.47;17.73;;;;;;;;;;5051531;28;20414;-67
2021/12/06 08:54:30;;;;;;;26.13;16.47;;;;;;;;;;5052155;28;20421;-67
2021/12/06 08:56:59;;;;;;;26.00;16.50;;;;;;;;;;5053467;28;20445;-67
2021/12/06 08:59:25;;;;;;;26.40;17.13;;;;;;;;;;5050603;28;20508;-74
2021/12/06 09:01:54;;;;;;;26.53;17.50;;;;;;;;;;5050085;28;20418;-65
2021/12/06 09:04:21;;;;;;;25.73;15.13;;;;;;;;;;5048554;28;20450;-66
2021/12/06 09:06:49;;;;;;;25.70;15.30;;;;;;;;;;5049919;28;20656;-70
2021/12/06 09:09:16;;;;;;;25.20;18.33;;;;;;;;;;5049679;28;20519;-70
2021/12/06 09:11:43;;;;;;;23.73;14.90;;;;;;;;;;5052353;28;20414;-72
2021/12/06 09:14:09;;;;;;;24.27;15.23;;;;;;;;;;5052181;28;20464;-67
2021/12/06 09:16:38;;;;;;;30.80;15.83;;;;;;;;;;5051219;28;20904;-67
2021/12/06 09:19:06;;;;;;;23.80;14.47;;;;;;;;;;5049603;28;20410;-70
2021/12/06 09:21:37;;;;;;;22.80;13.97;;;;;;;;;;5042569;28;20498;-71
2021/12/06 09:24:04;;;;;;;26.53;13.73;;;;;;;;;;5050455;28;20448;-71
2021/12/06 09:26:30;;;;;;;30.20;14.83;;;;;;;;;;5049439;28;20412;-68
2021/12/06 09:28:56;;;;;;;29.17;15.40;;;;;;;;;;5051013;28;20418;-70
2021/12/06 09:31:23;;;;;;;27.00;15.47;;;;;;;;;;5049277;28;20440;-67
2021/12/06 09:33:49;;;;;;;27.70;14.87;;;;;;;;;;5049102;28;20449;-69
2021/12/06 09:36:15;;;;;;;23.53;15.40;;;;;;;;;;5047254;28;20797;-70
2021/12/06 09:38:43;;;;;;;31.70;16.00;;;;;;;;;;5051043;28;20904;-69
2021/12/06 09:41:11;;;;;;;21.57;13.17;;;;;;;;;;5049015;28;20449;-69
2021/12/06 09:43:39;;;;;;;25.37;13.80;;;;;;;;;;5047305;28;20454;-67
2021/12/06 09:46:06;;;;;;;24.07;16.03;;;;;;;;;;5048409;28;20884;-66
2021/12/06 09:48:32;;;;;;;22.83;14.30;;;;;;;;;;5046185;28;20422;-66
2021/12/06 09:51:00;;;;;;;21.20;14.27;;;;;;;;;;5046425;28;20457;-67
2021/12/06 09:53:29;;;;;;;24.03;14.50;;;;;;;;;;5047006;28;20445;-71
2021/12/06 09:55:57;;;;;;;25.10;15.00;;;;;;;;;;5049625;28;20426;-68
2021/12/06 09:58:23;;;;;;;23.97;14.73;;;;;;;;;;5049465;28;20422;-69
2021/12/06 10:00:52;;;;;;;26.40;14.43;;;;;;;;;;5049196;28;22041;-69
2021/12/06 10:03:23;;;;;;;23.75;14.52;;;;;;;;;;5050149;28;20542;-72
2021/12/06 10:05:49;;;;;;;24.10;14.67;;;;;;;;;;5050229;28;20198;-69
2021/12/06 10:08:16;;;;;;;29.47;14.77;;;;;;;;;;5053657;28;20947;-74
2021/12/06 10:10:42;;;;;;;27.87;14.20;;;;;;;;;;5054745;28;20618;-72
2021/12/06 10:13:09;;;;;;;20.57;13.23;;;;;;;;;;5053298;28;20449;-71
2021/12/06 10:15:36;;;;;;;23.03;14.37;;;;;;;;;;5052791;28;20418;-70
2021/12/06 10:18:03;;;;;;;21.23;13.60;;;;;;;;;;5054659;28;20413;-69
2021/12/06 10:20:31;;;;;;;17.57;11.00;;;;;;;;;;5054062;28;20413;-69
2021/12/06 10:22:57;;;;;;;21.73;12.60;;;;;;;;;;5052383;28;20441;-69
2021/12/06 10:25:32;;;;;;;24.90;13.80;;;;;;;;;;5052863;28;20410;-69
2021/12/06 10:28:03;;;;;;;19.20;14.10;;;;;;;;;;5053686;28;20433;-69
2021/12/06 10:30:29;;;;;;;19.47;13.30;;;;;;;;;;5049510;28;20495;-69
2021/12/06 10:33:05;;;;;;;24.47;14.93;;;;;;;;;;5051069;28;20450;-67
2021/12/06 10:35:31;;;;;;;19.23;13.30;;;;;;;;;;5051681;28;21128;-67
2021/12/06 10:37:57;;;;;;;22.10;13.90;;;;;;;;;;5048696;28;20452;-67
2021/12/06 10:40:27;;;;;;;18.17;13.73;;;;;;;;;;5052054;28;20508;-67
2021/12/06 10:42:54;;;;;;;19.67;13.00;;;;;;;;;;5052698;28;20446;-67
2021/12/06 10:45:22;;;;;;;19.60;14.00;;;;;;;;;;5051945;28;20463;-67
2021/12/06 10:48:25;;;;;;;22.30;15.63;;;;;;;;;;5052544;28;20513;-68
2021/12/06 10:50:51;;;;;;;29.37;15.70;;;;;;;;;;4971293;28;20456;-67
2021/12/06 10:53:19;;;;;;;19.13;12.80;;;;;;;;;;5037515;28;20441;-67
2021/12/06 10:55:46;;;;;;;20.43;14.90;;;;;;;;;;5053476;28;20410;-68
2021/12/06 10:58:14;;;;;;;23.33;14.47;;;;;;;;;;5053248;28;20432;-68
2021/12/06 11:00:43;;;;;;;22.03;14.00;;;;;;;;;;5052313;28;20425;-67
2021/12/06 11:03:21;;;;;;;21.13;12.17;;;;;;;;;;5050703;28;20960;-67
2021/12/06 11:05:50;;;;;;;19.57;12.37;;;;;;;;;;5053075;28;20464;-67
2021/12/06 11:08:17;;;;;;;22.23;12.97;;;;;;;;;;5053995;28;20421;-67
2021/12/06 11:10:47;;;;;;;17.97;12.87;;;;;;;;;;5053660;28;20453;-67
2021/12/06 11:13:15;;;;;;;20.40;13.07;;;;;;;;;;5054313;28;20453;-67
2021/12/06 11:16:00;;;;;;;22.03;13.23;;;;;;;;;;5053969;28;20504;-67
2021/12/06 11:18:33;;;;;;;20.80;12.97;;;;;;;;;;5053488;28;20410;-66
2021/12/06 11:20:59;;;;;;;22.27;13.53;;;;;;;;;;5052597;28;20430;-66
2021/12/06 11:23:25;;;;;;;17.60;13.13;;;;;;;;;;5051818;28;20442;-66
2021/12/06 11:25:58;;;;;;;24.80;13.77;;;;;;;;;;5054628;28;20421;-67
2021/12/06 11:28:26;;;;;;;20.80;13.83;;;;;;;;;;5054623;28;20449;-66
2021/12/06 11:31:04;;;;;;;24.60;15.90;;;;;;;;;;5053331;28;20507;-67
2021/12/06 11:33:33;;;;;;;19.80;13.77;;;;;;;;;;5052726;28;20471;-67
2021/12/06 11:36:00;;;;;;;20.20;14.20;;;;;;;;;;5047423;28;20493;-67
2021/12/06 11:38:30;;;;;;;19.13;12.73;;;;;;;;;;5054231;28;20421;-66
2021/12/06 11:40:59;;;;;;;19.23;13.47;;;;;;;;;;5052461;28;20453;-67
2021/12/06 11:43:26;;;;;;;21.93;11.50;;;;;;;;;;5052169;28;20470;-67
2021/12/06 11:45:55;;;;;;;16.93;13.20;;;;;;;;;;5053059;28;20437;-67
2021/12/06 11:48:29;;;;;;;19.80;13.33;;;;;;;;;;5054589;28;20421;-67
2021/12/06 11:51:06;;;;;;;20.67;13.63;;;;;;;;;;5049599;28;20496;-67
2021/12/06 11:53:33;;;;;;;18.80;13.00;;;;;;;;;;5052379;28;20448;-67
2021/12/06 11:56:02;;;;;;;19.50;13.43;;;;;;;;;;5052728;28;20423;-67
2021/12/06 11:58:31;;;;;;;20.83;12.90;;;;;;;;;;5053432;28;20421;-67
2021/12/06 12:01:15;;;;;;;18.40;12.40;;;;;;;;;;5053718;28;20939;-67
2021/12/06 12:03:43;;;;;;;22.20;13.60;;;;;;;;;;5053351;28;20476;-67
2021/12/06 12:06:25;;;;;;;22.73;15.10;;;;;;;;;;5053226;28;20461;-67
2021/12/06 12:09:05;;;;;;;23.73;15.50;;;;;;;;;;5051973;28;20461;-67
2021/12/06 12:11:31;;;;;;;20.70;15.73;;;;;;;;;;5048316;28;20896;-66
2021/12/06 12:13:58;;;;;;;24.37;16.00;;;;;;;;;;5052091;28;20426;-66
2021/12/06 12:16:24;;;;;;;21.90;14.73;;;;;;;;;;5052514;28;20913;-67
2021/12/06 12:18:51;;;;;;;21.30;14.57;;;;;;;;;;5046594;28;20421;-67
2021/12/06 12:21:17;;;;;;;23.47;16.03;;;;;;;;;;5048945;28;20453;-68
2021/12/06 12:23:43;;;;;;;19.70;14.47;;;;;;;;;;5051210;28;20444;-68
2021/12/06 12:26:17;;;;;;;20.80;14.33;;;;;;;;;;5051861;28;20513;-67
2021/12/06 12:29:13;;;;;;;26.50;15.73;;;;;;;;;;5050029;28;20436;-68
2021/12/06 12:31:31;;;;;;;24.00;15.77;;;;;;;;;;5046974;28;20421;-68
2021/12/06 12:33:58;;;;;;;20.03;12.27;;;;;;;;;;5050978;28;20481;-68
2021/12/06 12:36:24;;;;;;;17.40;13.10;;;;;;;;;;5051981;28;20418;-68
2021/12/06 12:38:54;;;;;;;24.90;14.00;;;;;;;;;;5050646;28;20520;-68
2021/12/06 12:41:21;;;;;;;27.73;15.03;;;;;;;;;;5041801;28;20414;-68
2021/12/06 12:43:48;;;;;;;23.20;15.80;;;;;;;;;;5049528;28;21024;-68
2021/12/06 12:46:17;;;;;;;22.80;14.83;;;;;;;;;;5051547;28;20418;-68
2021/12/06 12:48:50;;;;;;;24.50;15.27;;;;;;;;;;5051179;28;20413;-68
2021/12/06 12:51:17;;;;;;;28.50;16.67;;;;;;;;;;5049512;28;20514;-68
2021/12/06 12:53:55;;;;;;;22.37;15.93;;;;;;;;;;5037859;28;20548;-68
2021/12/06 12:56:23;;;;;;;27.27;15.50;;;;;;;;;;5042287;28;20425;-68
2021/12/06 12:58:51;;;;;;;21.30;15.10;;;;;;;;;;5039142;28;20865;-68
2021/12/06 13:01:22;;;;;;;32.10;16.37;;;;;;;;;;5048472;28;20407;-68
2021/12/06 13:03:53;;;;;;;24.90;16.43;;;;;;;;;;5049801;28;20445;-68
2021/12/06 13:06:36;;;;;;;20.90;14.80;;;;;;;;;;5051620;28;20528;-68
2021/12/06 13:09:07;;;;;;;25.20;16.40;;;;;;;;;;5046389;28;20525;-68
2021/12/06 13:11:45;;;;;;;23.50;15.53;;;;;;;;;;5047009;28;20971;-67
2021/12/06 13:14:26;;;;;;;23.30;14.80;;;;;;;;;;5040579;28;20447;-67
2021/12/06 13:16:59;;;;;;;22.07;15.50;;;;;;;;;;5047290;28;20429;-67
2021/12/06 13:19:46;;;;;;;25.17;14.83;;;;;;;;;;5050893;28;20510;-68
2021/12/06 13:22:22;;;;;;;22.97;14.10;;;;;;;;;;5049640;28;20787;-67
2021/12/06 13:25:09;;;;;;;24.37;15.77;;;;;;;;;;5050060;28;20449;-67
2021/12/06 13:27:38;;;;;;;23.90;14.80;;;;;;;;;;5049840;28;20617;-67
2021/12/06 13:30:07;;;;;;;22.73;15.00;;;;;;;;;;5046054;28;21107;-67
2021/12/06 13:32:38;;;;;;;27.60;16.30;;;;;;;;;;5050822;28;20459;-67
2021/12/06 13:35:23;;;;;;;26.60;15.93;;;;;;;;;;5050237;28;20510;-67
2021/12/06 13:38:08;;;;;;;23.57;15.17;;;;;;;;;;5046326;28;20428;-67
2021/12/06 13:40:35;;;;;;;24.27;15.50;;;;;;;;;;5051380;28;20409;-67
2021/12/06 13:43:05;;;;;;;24.90;14.33;;;;;;;;;;5054845;28;20462;-68
2021/12/06 13:45:37;;;;;;;24.00;14.80;;;;;;;;;;5055301;28;20414;-67
2021/12/06 13:48:09;;;;;;;24.20;15.63;;;;;;;;;;5036545;28;21243;-67
2021/12/06 13:50:35;;;;;;;30.03;16.70;;;;;;;;;;5055467;28;20437;-67
2021/12/06 13:53:02;;;;;;;22.20;15.00;;;;;;;;;;5054597;28;20495;-67
2021/12/06 13:55:29;;;;;;;23.03;14.43;;;;;;;;;;5053900;28;20445;-67
2021/12/06 13:57:57;;;;;;;21.83;13.27;;;;;;;;;;5053188;28;20417;-67
2021/12/06 14:00:26;;;;;;;22.70;14.37;;;;;;;;;;5054671;28;20990;-67
2021/12/06 14:02:57;;;;;;;27.17;15.40;;;;;;;;;;5054652;28;20438;-67
2021/12/06 14:05:24;;;;;;;23.90;14.80;;;;;;;;;;5050732;28;20555;-68
2021/12/06 14:07:51;;;;;;;30.47;15.67;;;;;;;;;;5052808;28;20418;-67
2021/12/06 14:10:17;;;;;;;29.60;16.73;;;;;;;;;;5049619;28;20487;-68
2021/12/06 14:12:46;;;;;;;24.43;15.47;;;;;;;;;;5053883;28;20458;-67
2021/12/06 14:15:19;;;;;;;22.60;14.73;;;;;;;;;;5052797;28;20824;-67
2021/12/06 14:17:49;;;;;;;25.13;15.30;;;;;;;;;;5053054;28;20437;-67
2021/12/06 14:20:16;;;;;;;29.30;16.30;;;;;;;;;;5052926;28;20425;-67
2021/12/06 14:22:43;;;;;;;24.03;15.27;;;;;;;;;;5053104;28;20975;-67
2021/12/06 14:25:13;;;;;;;23.43;14.73;;;;;;;;;;5052525;28;21314;-67
2021/12/06 14:27:39;;;;;;;24.90;15.10;;;;;;;;;;5053783;28;20426;-67
2021/12/06 14:30:07;;;;;;;25.03;15.50;;;;;;;;;;5049949;28;20948;-68
2021/12/06 14:32:33;;;;;;;24.07;14.10;;;;;;;;;;5053676;28;20476;-69
2021/12/06 14:34:59;;;;;;;23.80;15.60;;;;;;;;;;5051738;28;20445;-68
2021/12/06 14:37:26;;;;;;;23.43;14.47;;;;;;;;;;5053479;28;20414;-67
2021/12/06 14:39:56;;;;;;;20.80;13.77;;;;;;;;;;5051812;28;20406;-68
2021/12/06 14:42:23;;;;;;;18.67;12.47;;;;;;;;;;5051130;28;20468;-67
2021/12/06 14:44:58;;;;;;;22.27;13.07;;;;;;;;;;5052526;28;20402;-68